Time;durP1;ratioP1;P1;durP2;ratioP2;P2;SDS_P1;SDS_P2;PMS_P1;PMS_P2;Temp;Humidity;BMP_temperature;BMP_pressure;BME280_temperature;BME280_humidity;BME280_pressure;Samples;Min_cycle;Max_cycle;Signal;HPM_P1;HPM_P2
2022/05/07 00:02:17;;;;;;;6.60;4.60;;;;;;;-141.50;100.00;63355.56;5061491;28;20053;-78
2022/05/07 00:04:43;;;;;;;8.13;4.80;;;;;;;-141.50;100.00;63355.56;5075067;28;20056;-78
2022/05/07 00:07:10;;;;;;;9.48;4.75;;;;;;;-141.50;100.00;63355.56;5075369;28;20049;-76
2022/05/07 00:09:37;;;;;;;8.18;4.78;;;;;;;-141.50;100.00;63355.56;5074510;28;20115;-78
2022/05/07 00:12:06;;;;;;;7.93;4.70;;;;;;;-141.50;100.00;63355.56;5074092;28;20090;-77
2022/05/07 00:14:33;;;;;;;9.15;4.75;;;;;;;-141.50;100.00;63355.56;5054895;28;20194;-78
2022/05/07 00:20:07;;;;;;;15.25;6.57;;;;;;;-141.50;100.00;63355.56;4990224;28;20050;-78
2022/05/07 00:22:33;;;;;;;14.05;6.65;;;;;;;-141.50;100.00;63355.56;4989013;28;20081;-78
2022/05/07 00:25:00;;;;;;;13.60;6.85;;;;;;;-141.50;100.00;63355.56;5068194;28;20174;-78
2022/05/07 00:27:27;;;;;;;14.75;6.38;;;;;;;-141.50;100.00;63355.56;5113154;28;20056;-79
2022/05/07 00:29:53;;;;;;;15.05;6.82;;;;;;;-141.50;100.00;63355.56;5112913;28;20051;-76
2022/05/07 00:32:20;;;;;;;16.35;6.75;;;;;;;-141.50;100.00;63355.56;5095642;28;20047;-77
2022/05/07 00:34:47;;;;;;;16.33;7.07;;;;;;;-141.50;100.00;63355.56;5118952;28;20067;-76
2022/05/07 00:37:13;;;;;;;13.73;6.10;;;;;;;-141.50;100.00;63355.56;5095178;28;20086;-76
2022/05/07 00:39:40;;;;;;;14.73;7.00;;;;;;;-141.50;100.00;63355.56;5106308;28;20059;-78
2022/05/07 00:42:07;;;;;;;14.43;6.28;;;;;;;-141.50;100.00;63355.56;5093335;28;20051;-77
2022/05/07 00:44:34;;;;;;;12.85;6.43;;;;;;;-141.50;100.00;63355.56;5095612;28;20075;-77
2022/05/07 00:47:20;;;;;;;14.48;6.70;;;;;;;-141.50;100.00;63355.56;5095302;28;20491;-77
2022/05/07 00:49:49;;;;;;;10.18;6.53;;;;;;;-141.50;100.00;63355.56;5112752;28;20083;-76
2022/05/07 00:52:18;;;;;;;12.55;6.10;;;;;;;-141.50;100.00;63355.56;5094780;28;20075;-76
2022/05/07 00:54:48;;;;;;;13.38;6.35;;;;;;;-141.50;100.00;63355.56;5100905;28;20043;-76
2022/05/07 00:57:17;;;;;;;14.68;6.90;;;;;;;-141.50;100.00;63355.56;5096916;28;20051;-77
2022/05/07 00:59:45;;;;;;;12.05;6.50;;;;;;;-141.50;100.00;63355.56;5114821;28;20062;-75
2022/05/07 01:02:11;;;;;;;16.77;7.25;;;;;;;-141.50;100.00;63355.56;5113351;28;20143;-76
2022/05/07 01:04:38;;;;;;;15.13;7.30;;;;;;;-141.50;100.00;63355.56;5112972;28;20067;-77
2022/05/07 01:07:04;;;;;;;14.05;7.40;;;;;;;-141.50;100.00;63355.56;5111781;28;20419;-75
2022/05/07 01:09:31;;;;;;;16.65;8.18;;;;;;;-141.50;100.00;63355.56;5111981;28;20062;-76
2022/05/07 01:11:57;;;;;;;13.23;6.95;;;;;;;-141.50;100.00;63355.56;5112824;28;20051;-78
2022/05/07 01:14:24;;;;;;;14.40;7.63;;;;;;;-141.50;100.00;63355.56;5093566;28;20556;-77
2022/05/07 01:16:50;;;;;;;17.27;7.80;;;;;;;-141.50;100.00;63355.56;5116482;28;20048;-74
2022/05/07 01:19:17;;;;;;;9.93;6.45;;;;;;;-141.50;100.00;63355.56;5111581;28;20143;-76
2022/05/07 01:21:44;;;;;;;10.40;6.47;;;;;;;-141.50;100.00;63355.56;5113727;28;20048;-77
2022/05/07 01:24:11;;;;;;;14.45;7.07;;;;;;;-141.50;100.00;63355.56;5093578;28;20043;-77
2022/05/07 01:26:39;;;;;;;11.82;7.05;;;;;;;-141.50;100.00;63355.56;5112381;28;20105;-77
2022/05/07 01:29:07;;;;;;;11.52;6.50;;;;;;;-141.50;100.00;63355.56;5093365;28;20097;-77
2022/05/07 01:31:34;;;;;;;9.23;6.10;;;;;;;-141.50;100.00;63355.56;5077002;28;20075;-77
2022/05/07 01:34:01;;;;;;;11.02;6.80;;;;;;;-141.50;100.00;63355.56;5092523;28;20053;-76
2022/05/07 01:36:27;;;;;;;11.55;6.75;;;;;;;-141.50;100.00;63355.56;5111342;28;20059;-77
2022/05/07 01:38:54;;;;;;;14.05;7.93;;;;;;;-141.50;100.00;63355.56;5093804;28;20198;-77
2022/05/07 01:41:20;;;;;;;12.43;8.05;;;;;;;-141.50;100.00;63355.56;5074844;28;20134;-77
2022/05/07 01:43:47;;;;;;;14.60;8.05;;;;;;;-141.50;100.00;63355.56;5072149;28;20075;-74
2022/05/07 01:48:59;;;;;;;15.63;6.47;;;;;;;-141.50;100.00;63355.56;5091276;28;20060;-78
2022/05/07 01:51:26;;;;;;;11.40;7.07;;;;;;;-141.50;100.00;63355.56;5095466;28;20083;-77
2022/05/07 01:53:52;;;;;;;11.20;6.97;;;;;;;-141.50;100.00;63355.56;5094308;28;20048;-76
2022/05/07 01:56:19;;;;;;;11.57;7.05;;;;;;;-141.50;100.00;63355.56;5074306;28;20419;-77
2022/05/07 01:58:46;;;;;;;11.60;7.60;;;;;;;-141.50;100.00;63355.56;5091383;28;20135;-75
2022/05/07 02:01:13;;;;;;;9.95;6.63;;;;;;;-141.50;100.00;63355.56;5104323;28;20052;-76
2022/05/07 02:03:40;;;;;;;14.93;7.65;;;;;;;-141.50;100.00;63355.56;5097135;28;20051;-74
2022/05/07 02:06:09;;;;;;;11.80;7.45;;;;;;;-141.50;100.00;63355.56;5097383;28;20087;-75
2022/05/07 02:08:36;;;;;;;15.52;8.32;;;;;;;-141.50;100.00;63355.56;5094523;28;20273;-76
2022/05/07 02:11:02;;;;;;;13.68;6.95;;;;;;;-141.50;100.00;63355.56;5072187;28;20222;-76
2022/05/07 02:13:29;;;;;;;11.93;7.05;;;;;;;-141.50;100.00;63355.56;5091387;28;20083;-78
2022/05/07 02:15:56;;;;;;;12.10;6.85;;;;;;;-141.50;100.00;63355.56;5072440;28;20550;-78
2022/05/07 02:18:22;;;;;;;14.85;6.95;;;;;;;-141.50;100.00;63355.56;5073719;28;20055;-78
2022/05/07 02:20:49;;;;;;;9.50;6.38;;;;;;;-141.50;100.00;63355.56;5072968;28;20593;-78
2022/05/07 02:23:17;;;;;;;14.52;7.22;;;;;;;-141.50;100.00;63355.56;5072578;28;20047;-77
2022/05/07 02:25:44;;;;;;;12.52;7.30;;;;;;;-141.50;100.00;63355.56;5072907;28;20051;-77
2022/05/07 02:28:10;;;;;;;14.57;7.90;;;;;;;-141.50;100.00;63355.56;5092230;28;20084;-76
2022/05/07 02:30:37;;;;;;;11.00;7.05;;;;;;;-141.50;100.00;63355.56;5088731;28;20158;-76
2022/05/07 02:33:04;;;;;;;12.30;6.90;;;;;;;-141.50;100.00;63355.56;5090492;28;20113;-78
2022/05/07 02:35:30;;;;;;;13.02;7.40;;;;;;;-141.50;100.00;63355.56;5091735;28;20103;-77
2022/05/07 02:37:58;;;;;;;13.57;7.15;;;;;;;-141.50;100.00;63355.56;5091968;28;20449;-77
2022/05/07 02:40:24;;;;;;;10.55;7.00;;;;;;;-141.50;100.00;63355.56;5079588;28;20155;-76
2022/05/07 02:42:51;;;;;;;12.95;7.70;;;;;;;-141.50;100.00;63355.56;5053783;28;20090;-75
2022/05/07 02:45:18;;;;;;;14.25;7.88;;;;;;;-141.50;100.00;63355.56;5070536;28;20469;-73
2022/05/07 02:47:44;;;;;;;11.05;7.05;;;;;;;-141.50;100.00;63355.56;5070356;28;20056;-76
2022/05/07 02:50:12;;;;;;;12.48;7.03;;;;;;;-141.50;100.00;63355.56;5073148;28;20052;-77
2022/05/07 02:52:38;;;;;;;13.07;6.47;;;;;;;-141.50;100.00;63355.56;5061078;28;20048;-76
2022/05/07 02:55:08;;;;;;;12.00;6.72;;;;;;;-141.50;100.00;63355.56;5073581;28;20076;-78
2022/05/07 02:57:35;;;;;;;11.38;6.25;;;;;;;-141.50;100.00;63355.56;5052268;28;20057;-78
2022/05/07 03:00:03;;;;;;;10.00;6.45;;;;;;;-141.50;100.00;63355.56;5070240;28;20492;-76
2022/05/07 03:02:31;;;;;;;10.57;6.55;;;;;;;-141.50;100.00;63355.56;5070208;28;20084;-75
2022/05/07 03:04:58;;;;;;;10.23;6.68;;;;;;;-141.50;100.00;63355.56;5070027;28;20104;-77
2022/05/07 03:07:24;;;;;;;13.43;7.05;;;;;;;-141.50;100.00;63355.56;5050879;28;20080;-76
2022/05/07 03:09:51;;;;;;;10.73;6.32;;;;;;;-141.50;100.00;63355.56;5069148;28;20140;-76
2022/05/07 03:12:17;;;;;;;9.95;6.47;;;;;;;-141.50;100.00;63355.56;5070599;28;20132;-76
2022/05/07 03:14:44;;;;;;;10.43;6.40;;;;;;;-141.50;100.00;63355.56;5070703;28;20075;-78
2022/05/07 03:17:10;;;;;;;9.02;5.70;;;;;;;-141.50;100.00;63355.56;5070054;28;20927;-77
2022/05/07 03:19:37;;;;;;;9.57;5.80;;;;;;;-141.50;100.00;63355.56;5069762;28;20056;-77
2022/05/07 03:22:03;;;;;;;11.82;5.85;;;;;;;-141.50;100.00;63355.56;5069670;28;20076;-77
2022/05/07 03:24:30;;;;;;;12.55;6.07;;;;;;;-141.50;100.00;63355.56;5051924;28;20112;-76
2022/05/07 03:26:57;;;;;;;10.43;6.18;;;;;;;-141.50;100.00;63355.56;5051233;28;20049;-73
2022/05/07 03:29:23;;;;;;;9.35;6.15;;;;;;;-141.50;100.00;63355.56;5069722;28;20569;-76
2022/05/07 03:31:50;;;;;;;8.02;5.65;;;;;;;-141.50;100.00;63355.56;5051379;28;20356;-77
2022/05/07 03:34:16;;;;;;;8.63;6.00;;;;;;;-141.50;100.00;63355.56;5071344;28;20045;-76
2022/05/07 03:36:43;;;;;;;8.48;5.60;;;;;;;-141.50;100.00;63355.56;5071813;28;20053;-75
2022/05/07 03:39:11;;;;;;;8.63;5.97;;;;;;;-141.50;100.00;63355.56;5071609;28;20477;-76
2022/05/07 03:41:39;;;;;;;9.05;5.40;;;;;;;-141.50;100.00;63355.56;5093529;28;20456;-77
2022/05/07 03:44:05;;;;;;;8.82;5.68;;;;;;;-141.50;100.00;63355.56;5075488;28;20077;-77
2022/05/07 03:46:32;;;;;;;11.27;5.45;;;;;;;-141.50;100.00;63355.56;5097546;28;20084;-76
2022/05/07 03:48:59;;;;;;;7.95;4.95;;;;;;;-141.50;100.00;63355.56;5079288;28;20054;-77
2022/05/07 03:51:25;;;;;;;10.63;5.55;;;;;;;-141.50;100.00;63355.56;5079941;28;20056;-78
2022/05/07 03:53:52;;;;;;;13.32;5.82;;;;;;;-141.50;100.00;63355.56;5096672;28;20087;-76
2022/05/07 03:56:18;;;;;;;13.85;5.68;;;;;;;-141.50;100.00;63355.56;5097081;28;20051;-77
2022/05/07 03:58:45;;;;;;;9.38;5.82;;;;;;;-141.50;100.00;63355.56;5075948;28;20135;-77
2022/05/07 04:01:12;;;;;;;11.95;6.03;;;;;;;-141.50;100.00;63355.56;5075858;28;20544;-79
2022/05/07 04:03:38;;;;;;;12.15;5.97;;;;;;;-141.50;100.00;63355.56;5074513;28;20055;-79
2022/05/07 04:06:05;;;;;;;11.27;5.50;;;;;;;-141.50;100.00;63355.56;5077089;28;20083;-77
2022/05/07 04:08:31;;;;;;;9.50;5.82;;;;;;;-141.50;100.00;63355.56;5093635;28;20048;-76
2022/05/07 04:10:58;;;;;;;14.05;6.03;;;;;;;-141.50;100.00;63355.56;5093177;28;20052;-76
2022/05/07 04:13:25;;;;;;;11.25;5.75;;;;;;;-141.50;100.00;63355.56;5074830;28;20048;-75
2022/05/07 04:15:51;;;;;;;10.07;5.28;;;;;;;-141.50;100.00;63355.56;5075128;28;20132;-75
2022/05/07 04:18:18;;;;;;;11.02;5.50;;;;;;;-141.50;100.00;63355.56;5092174;28;20060;-78
2022/05/07 04:20:44;;;;;;;8.60;5.78;;;;;;;-141.50;100.00;63355.56;5094247;28;20075;-77
2022/05/07 04:23:11;;;;;;;10.48;5.75;;;;;;;-141.50;100.00;63355.56;5094739;28;20468;-77
2022/05/07 04:25:38;;;;;;;9.05;5.07;;;;;;;-141.50;100.00;63355.56;5093322;28;20109;-75
2022/05/07 04:28:06;;;;;;;8.48;5.45;;;;;;;-141.50;100.00;63355.56;5092142;28;20093;-76
2022/05/07 04:30:32;;;;;;;8.38;5.30;;;;;;;-141.50;100.00;63355.56;5092703;28;20048;-77
2022/05/07 04:32:59;;;;;;;10.40;5.75;;;;;;;-141.50;100.00;63355.56;5093724;28;20213;-78
2022/05/07 04:35:26;;;;;;;7.40;5.32;;;;;;;-141.50;100.00;63355.56;5092156;28;20131;-78
2022/05/07 04:37:52;;;;;;;10.00;6.05;;;;;;;-141.50;100.00;63355.56;5093360;28;20055;-76
2022/05/07 04:40:19;;;;;;;9.68;5.78;;;;;;;-141.50;100.00;63355.56;5098267;28;20052;-76
2022/05/07 04:42:46;;;;;;;14.45;6.55;;;;;;;-141.50;100.00;63355.56;5078656;28;20051;-75
2022/05/07 04:45:13;;;;;;;14.63;9.15;;;;;;;-141.50;100.00;63355.56;5075501;28;20102;-77
2022/05/07 04:47:40;;;;;;;15.70;8.50;;;;;;;-141.50;100.00;63355.56;5093397;28;20052;-76
2022/05/07 04:50:07;;;;;;;14.20;9.70;;;;;;;-141.50;100.00;63355.56;5093997;28;20413;-77
2022/05/07 04:52:34;;;;;;;17.42;9.98;;;;;;;-141.50;100.00;63355.56;5092045;28;20043;-77
2022/05/07 04:55:02;;;;;;;23.98;10.88;;;;;;;-141.50;100.00;63355.56;5074625;28;20048;-76
2022/05/07 04:57:28;;;;;;;19.42;10.55;;;;;;;-141.50;100.00;63355.56;5090229;28;20121;-77
2022/05/07 04:59:55;;;;;;;15.07;10.13;;;;;;;-141.50;100.00;63355.56;5073152;28;20265;-77
2022/05/07 05:02:22;;;;;;;18.50;10.05;;;;;;;-141.50;100.00;63355.56;5093026;28;20113;-77
2022/05/07 05:04:48;;;;;;;17.42;9.90;;;;;;;-141.50;100.00;63355.56;5093316;28;20067;-78
2022/05/07 05:07:15;;;;;;;13.57;9.00;;;;;;;-141.50;100.00;63355.56;5093204;28;20243;-76
2022/05/07 05:09:41;;;;;;;17.15;9.27;;;;;;;-141.50;100.00;63355.56;5094330;28;20579;-76
2022/05/07 05:12:08;;;;;;;13.55;8.95;;;;;;;-141.50;100.00;63355.56;5075568;28;20052;-77
2022/05/07 05:17:20;;;;;;;15.63;8.70;;;;;;;-141.50;100.00;63355.56;5095153;28;20071;-78
2022/05/07 05:19:47;;;;;;;19.92;11.30;;;;;;;-141.50;100.00;63355.56;5092531;28;20055;-79
2022/05/07 05:22:13;;;;;;;18.20;10.60;;;;;;;-141.50;100.00;63355.56;5074307;28;20110;-76
2022/05/07 05:24:40;;;;;;;13.60;8.63;;;;;;;-141.50;100.00;63355.56;5074025;28;20064;-76
2022/05/07 05:27:06;;;;;;;13.93;8.45;;;;;;;-141.50;100.00;63355.56;5092960;28;20475;-79
2022/05/07 05:29:33;;;;;;;17.08;8.55;;;;;;;-141.50;100.00;63355.56;5093330;28;20047;-78
2022/05/07 05:31:59;;;;;;;14.95;8.27;;;;;;;-141.50;100.00;63355.56;5085347;28;20460;-77
2022/05/07 05:34:27;;;;;;;13.18;7.68;;;;;;;-141.50;100.00;63355.56;5090958;28;20425;-75
2022/05/07 05:36:53;;;;;;;15.20;8.60;;;;;;;-141.50;100.00;63355.56;5087514;28;20080;-78
2022/05/07 05:39:20;;;;;;;15.77;8.35;;;;;;;-141.50;100.00;63355.56;5051547;28;20083;-76
2022/05/07 05:41:46;;;;;;;15.10;8.10;;;;;;;-141.50;100.00;63355.56;5067850;28;20052;-77
2022/05/07 05:44:13;;;;;;;10.98;7.63;;;;;;;-141.50;100.00;63355.56;5050149;28;20048;-76
2022/05/07 05:46:39;;;;;;;14.13;7.75;;;;;;;-141.50;100.00;63355.56;5074920;28;20067;-77
2022/05/07 05:49:06;;;;;;;13.30;7.47;;;;;;;-141.50;100.00;63355.56;5069488;28;20131;-72
2022/05/07 05:51:33;;;;;;;11.93;7.78;;;;;;;-141.50;100.00;63355.56;5050422;28;20086;-76
2022/05/07 05:53:59;;;;;;;10.98;7.35;;;;;;;-141.50;100.00;63355.56;5068767;28;20476;-77
2022/05/07 05:56:26;;;;;;;11.38;6.88;;;;;;;-141.50;100.00;63355.56;5068921;28;20095;-75
2022/05/07 05:58:52;;;;;;;13.07;7.30;;;;;;;-141.50;100.00;63355.56;5050543;28;20291;-78
2022/05/07 06:01:19;;;;;;;15.23;6.93;;;;;;;-141.50;100.00;63355.56;5049089;28;20520;-78
2022/05/07 06:03:45;;;;;;;14.48;7.55;;;;;;;-141.50;100.00;63355.56;5066376;28;20078;-74
2022/05/07 06:06:12;;;;;;;12.88;7.38;;;;;;;-141.50;100.00;63355.56;5051022;28;20057;-77
2022/05/07 06:08:38;;;;;;;10.88;6.38;;;;;;;-141.50;100.00;63355.56;5067590;28;20462;-77
2022/05/07 06:11:05;;;;;;;9.50;6.80;;;;;;;-141.50;100.00;63355.56;5069620;28;20057;-77
2022/05/07 06:13:33;;;;;;;12.23;6.63;;;;;;;-141.50;100.00;63355.56;5049019;28;20249;-77
2022/05/07 06:15:59;;;;;;;10.63;6.20;;;;;;;-141.50;100.00;63355.56;5068027;28;20079;-78
2022/05/07 06:18:26;;;;;;;9.93;6.63;;;;;;;-141.50;100.00;63355.56;5067342;28;20064;-76
2022/05/07 06:20:52;;;;;;;11.05;5.80;;;;;;;-141.50;100.00;63355.56;5049056;28;20135;-74
2022/05/07 06:23:19;;;;;;;10.82;6.00;;;;;;;-141.50;100.00;63355.56;5070350;28;20225;-74
2022/05/07 06:28:31;;;;;;;12.95;5.40;;;;;;;-141.50;100.00;63355.56;5070752;28;20052;-75
2022/05/07 06:30:59;;;;;;;8.98;5.35;;;;;;;-141.50;100.00;63355.56;5051079;28;20094;-76
2022/05/07 06:33:26;;;;;;;8.70;5.28;;;;;;;-141.50;100.00;63355.56;5067460;28;20084;-76
2022/05/07 06:35:52;;;;;;;11.45;5.13;;;;;;;-141.50;100.00;63355.56;5051310;28;20484;-76
2022/05/07 06:38:19;;;;;;;8.20;5.22;;;;;;;-141.50;100.00;63355.56;5051076;28;20574;-77
2022/05/07 06:40:46;;;;;;;9.50;4.85;;;;;;;-141.50;100.00;63355.56;5067757;28;20493;-74
2022/05/07 06:43:13;;;;;;;8.80;5.05;;;;;;;-141.50;100.00;63355.56;5063523;28;20746;-74
2022/05/07 06:45:40;;;;;;;10.00;4.82;;;;;;;-141.50;100.00;63355.56;5087675;28;20048;-73
2022/05/07 06:48:11;;;;;;;9.40;4.97;;;;;;;-141.50;100.00;63355.56;5064749;28;20033;-75
2022/05/07 06:50:38;;;;;;;11.02;5.30;;;;;;;-141.50;100.00;63355.56;5051810;28;20135;-83
2022/05/07 06:53:05;;;;;;;7.50;4.07;;;;;;;-141.50;100.00;63355.56;5070964;28;20144;-75
2022/05/07 06:55:33;;;;;;;8.45;4.38;;;;;;;-141.50;100.00;63355.56;5070682;28;20080;-76
2022/05/07 06:57:59;;;;;;;7.35;4.03;;;;;;;-141.50;100.00;63355.56;5051595;28;20055;-76
2022/05/07 07:00:46;;;;;;;7.10;3.78;;;;;;;-141.50;100.00;63355.56;5066577;28;20052;-75
2022/05/07 07:03:12;;;;;;;6.05;3.10;;;;;;;-141.50;100.00;63355.56;5066805;28;20068;-76
2022/05/07 07:05:39;;;;;;;7.32;3.38;;;;;;;-141.50;100.00;63355.56;5092771;28;20066;-77
2022/05/07 07:08:06;;;;;;;6.50;3.67;;;;;;;-141.50;100.00;63355.56;5107282;28;20602;-77
2022/05/07 07:10:32;;;;;;;7.55;3.08;;;;;;;-141.50;100.00;63355.56;5105990;28;20087;-74
2022/05/07 07:12:59;;;;;;;6.03;3.58;;;;;;;-141.50;100.00;63355.56;5102993;28;20078;-78
2022/05/07 07:15:25;;;;;;;5.63;2.95;;;;;;;-141.50;100.00;63355.56;5091589;28;20059;-75
2022/05/07 07:17:52;;;;;;;8.30;3.28;;;;;;;-141.50;100.00;63355.56;5092491;28;20056;-75
2022/05/07 07:20:18;;;;;;;9.80;2.95;;;;;;;-141.50;100.00;63355.56;5094177;28;20533;-75
2022/05/07 07:22:46;;;;;;;5.65;2.78;;;;;;;-141.50;100.00;63355.56;5095484;28;20060;-76
2022/05/07 07:25:13;;;;;;;5.05;2.80;;;;;;;-141.50;100.00;63355.56;5073804;28;20091;-75
2022/05/07 07:27:39;;;;;;;6.15;2.90;;;;;;;-141.50;100.00;63355.56;5091900;28;20076;-75
2022/05/07 07:30:06;;;;;;;5.43;2.83;;;;;;;-141.50;100.00;63355.56;5079129;28;20110;-73
2022/05/07 07:32:37;;;;;;;10.50;2.55;;;;;;;-141.50;100.00;63355.56;5070915;28;20060;-76
2022/05/07 07:35:05;;;;;;;5.57;2.55;;;;;;;-141.50;100.00;63355.56;5070693;28;20080;-76
2022/05/07 07:37:32;;;;;;;8.57;2.55;;;;;;;-141.50;100.00;63355.56;5076344;28;20063;-73
2022/05/07 07:40:00;;;;;;;4.90;2.10;;;;;;;-141.50;100.00;63355.56;5087823;28;20052;-75
2022/05/07 07:42:28;;;;;;;5.78;2.60;;;;;;;-141.50;100.00;63355.56;5088927;28;20051;-77
2022/05/07 07:47:57;;;;;;;7.68;2.92;;;;;;;-141.50;100.00;63355.56;5069160;28;20651;-74
2022/05/07 07:50:24;;;;;;;6.90;2.67;;;;;;;-141.50;100.00;63355.56;5049329;28;20466;-76
2022/05/07 07:52:54;;;;;;;4.35;2.45;;;;;;;-141.50;100.00;63355.56;5074552;28;20053;-80
2022/05/07 07:55:22;;;;;;;4.88;2.30;;;;;;;-141.50;100.00;63355.56;5076135;28;20432;-79
2022/05/07 07:57:52;;;;;;;5.68;2.30;;;;;;;-141.50;100.00;63355.56;5069994;28;20108;-77
2022/05/07 08:00:19;;;;;;;5.53;2.08;;;;;;;-141.50;100.00;63355.56;5047828;28;20114;-77
2022/05/07 08:02:52;;;;;;;12.60;3.60;;;;;;;-141.50;100.00;63355.56;5067474;28;20048;-77
2022/05/07 08:05:24;;;;;;;4.72;1.90;;;;;;;-141.50;100.00;63355.56;5072205;28;20049;-80
2022/05/07 08:13:21;;;;;;;7.57;2.30;;;;;;;-141.50;100.00;63355.56;5073956;28;20888;-79
2022/05/07 08:15:48;;;;;;;5.75;2.17;;;;;;;-141.50;100.00;63355.56;5057295;28;20059;-78
2022/05/07 08:18:16;;;;;;;3.25;1.88;;;;;;;-141.50;100.00;63355.56;5072269;28;20117;-79
2022/05/07 08:20:43;;;;;;;7.15;2.13;;;;;;;-141.50;100.00;63355.56;5089725;28;20047;-80
2022/05/07 08:23:11;;;;;;;6.28;2.90;;;;;;;-141.50;100.00;63355.56;5090816;28;20048;-80
2022/05/07 08:25:38;;;;;;;7.05;3.00;;;;;;;-141.50;100.00;63355.56;5084002;28;20100;-80
2022/05/07 08:28:05;;;;;;;6.53;2.15;;;;;;;-141.50;100.00;63355.56;5088279;28;20086;-79
2022/05/07 08:30:33;;;;;;;3.15;1.80;;;;;;;-141.50;100.00;63355.56;5112902;28;20142;-78
2022/05/07 08:32:59;;;;;;;3.72;1.70;;;;;;;-141.50;100.00;63355.56;5112644;28;20136;-80
2022/05/07 08:35:26;;;;;;;3.30;1.70;;;;;;;-141.50;100.00;63355.56;5086682;28;20150;-80
2022/05/07 08:37:52;;;;;;;4.13;1.52;;;;;;;-141.50;100.00;63355.56;5056486;28;20087;-81
2022/05/07 08:40:20;;;;;;;7.68;1.55;;;;;;;-141.50;100.00;63355.56;5055104;28;20064;-82
2022/05/07 08:42:47;;;;;;;2.95;1.50;;;;;;;-141.50;100.00;63355.56;5071827;28;20052;-81
2022/05/07 08:45:14;;;;;;;3.10;1.42;;;;;;;-141.50;100.00;63355.56;5071822;28;20056;-81
2022/05/07 08:47:44;;;;;;;11.00;2.10;;;;;;;-141.50;100.00;63355.56;5071840;28;20072;-80
2022/05/07 08:50:13;;;;;;;5.28;1.42;;;;;;;-141.50;100.00;63355.56;5072639;28;20427;-81
2022/05/07 08:52:42;;;;;;;4.63;1.90;;;;;;;-141.50;100.00;63355.56;5072176;28;20079;-82
2022/05/07 08:55:14;;;;;;;16.48;3.83;;;;;;;-141.50;100.00;63355.56;5077521;28;20484;-80
2022/05/07 08:57:42;;;;;;;6.57;2.33;;;;;;;-141.50;100.00;63355.56;5081290;28;20538;-79
2022/05/07 09:00:10;;;;;;;4.13;1.60;;;;;;;-141.50;100.00;63355.56;5072527;28;20084;-81
2022/05/07 09:02:41;;;;;;;3.50;1.65;;;;;;;-141.50;100.00;63355.56;5071279;28;20054;-81
2022/05/07 09:05:15;;;;;;;3.67;1.67;;;;;;;-141.50;100.00;63355.56;5070461;28;20107;-82
2022/05/07 09:07:57;;;;;;;6.30;2.13;;;;;;;-141.50;100.00;63355.56;5054682;28;20119;-81
2022/05/07 09:10:26;;;;;;;7.30;1.90;;;;;;;-141.50;100.00;63355.56;5083229;28;20064;-81
2022/05/07 09:12:54;;;;;;;6.60;2.50;;;;;;;-141.50;100.00;63355.56;5075068;28;20084;-79
2022/05/07 09:15:20;;;;;;;7.93;2.28;;;;;;;-141.50;100.00;63355.56;5063053;28;20053;-82
2022/05/07 09:17:47;;;;;;;2.97;1.40;;;;;;;-141.50;100.00;63355.56;5061499;28;20118;-81
2022/05/07 09:20:18;;;;;;;5.80;1.65;;;;;;;-141.50;100.00;63355.56;5077275;28;20058;-82
2022/05/07 09:22:50;;;;;;;5.15;2.20;;;;;;;-141.50;100.00;63355.56;5054784;28;20539;-81
2022/05/07 09:25:21;;;;;;;3.40;1.95;;;;;;;-141.50;100.00;63355.56;5073811;28;20473;-81
2022/05/07 09:28:01;;;;;;;6.25;2.20;;;;;;;-141.50;100.00;63355.56;5054256;28;20052;-80
2022/05/07 09:30:28;;;;;;;4.15;1.80;;;;;;;-141.50;100.00;63355.56;5054107;28;20471;-82
2022/05/07 09:32:56;;;;;;;6.32;1.90;;;;;;;-141.50;100.00;63355.56;5054894;28;20056;-83
2022/05/07 09:35:47;;;;;;;5.65;1.60;;;;;;;-141.50;100.00;63355.56;5065918;28;20079;-81
2022/05/07 09:38:15;;;;;;;6.72;1.88;;;;;;;-141.50;100.00;63355.56;5103799;28;20386;-80
2022/05/07 09:40:43;;;;;;;4.88;1.70;;;;;;;-141.50;100.00;63355.56;5084117;28;20170;-79
2022/05/07 09:43:12;;;;;;;8.55;3.08;;;;;;;-141.50;100.00;63355.56;5075336;28;20102;-82
2022/05/07 09:45:39;;;;;;;8.65;2.15;;;;;;;-141.50;100.00;63355.56;5076984;28;20067;-81
2022/05/07 09:48:07;;;;;;;5.70;1.90;;;;;;;-141.50;100.00;63355.56;5053691;28;20076;-83
2022/05/07 09:58:39;;;;;;;4.03;1.88;;;;;;;-141.50;100.00;63355.56;5070640;28;20060;-81
2022/05/07 10:01:21;;;;;;;7.25;1.70;;;;;;;-141.50;100.00;63355.56;5053486;28;20193;-79
2022/05/07 10:04:12;;;;;;;6.30;2.08;;;;;;;-141.50;100.00;63355.56;5051022;28;20056;-80
2022/05/07 10:07:01;;;;;;;5.53;2.15;;;;;;;-141.50;100.00;63355.56;5070939;28;20136;-79
2022/05/07 10:09:51;;;;;;;5.22;2.30;;;;;;;-141.50;100.00;63355.56;5069784;28;20060;-79
2022/05/07 10:12:20;;;;;;;6.45;1.80;;;;;;;-141.50;100.00;63355.56;5085898;28;20056;-79
2022/05/07 10:14:47;;;;;;;3.42;1.58;;;;;;;-141.50;100.00;63355.56;5078435;28;20049;-79
2022/05/07 10:17:15;;;;;;;4.85;1.52;;;;;;;-141.50;100.00;63355.56;5059730;28;20123;-81
2022/05/07 10:19:43;;;;;;;4.45;1.60;;;;;;;-141.50;100.00;63355.56;5077808;28;20376;-77
2022/05/07 10:22:24;;;;;;;4.90;1.90;;;;;;;-141.50;100.00;63355.56;5066677;28;20093;-79
2022/05/07 10:25:15;;;;;;;3.50;1.73;;;;;;;-141.50;100.00;63355.56;5080575;28;20166;-73
2022/05/07 10:27:44;;;;;;;3.15;1.70;;;;;;;-141.50;100.00;63355.56;5078104;28;20613;-80
2022/05/07 10:30:19;;;;;;;3.33;1.60;;;;;;;-141.50;100.00;63355.56;5089153;28;20074;-76
2022/05/07 10:33:06;;;;;;;3.63;1.80;;;;;;;-141.50;100.00;63355.56;5066527;28;20056;-76
2022/05/07 10:35:52;;;;;;;5.80;1.63;;;;;;;-141.50;100.00;63355.56;5076321;28;20520;-78
2022/05/07 10:38:37;;;;;;;4.63;1.70;;;;;;;-141.50;100.00;63355.56;5087463;28;20137;-76
2022/05/07 10:41:05;;;;;;;5.88;1.65;;;;;;;-141.50;100.00;63355.56;5087752;28;20105;-76
2022/05/07 10:43:33;;;;;;;3.53;1.80;;;;;;;-141.50;100.00;63355.56;5058678;28;20076;-76
2022/05/07 10:46:19;;;;;;;4.88;1.73;;;;;;;-141.50;100.00;63355.56;5068203;28;20419;-80
2022/05/07 10:49:04;;;;;;;3.58;1.38;;;;;;;-141.50;100.00;63355.56;5057702;28;20052;-76
2022/05/07 10:51:35;;;;;;;2.28;1.40;;;;;;;-141.50;100.00;63355.56;5050595;28;20088;-75
2022/05/07 10:54:19;;;;;;;2.03;1.38;;;;;;;-141.50;100.00;63355.56;5068146;28;20049;-75
2022/05/07 10:56:48;;;;;;;4.50;1.42;;;;;;;-141.50;100.00;63355.56;5062203;28;20095;-73
2022/05/07 10:59:15;;;;;;;4.18;1.80;;;;;;;-141.50;100.00;63355.56;5075131;28;20052;-74
2022/05/07 11:01:42;;;;;;;2.83;1.50;;;;;;;-141.50;100.00;63355.56;5091187;28;20080;-75
2022/05/07 11:04:13;;;;;;;4.13;1.85;;;;;;;-141.50;100.00;63355.56;5058289;28;20072;-80
2022/05/07 11:06:39;;;;;;;3.38;1.67;;;;;;;-141.50;100.00;63355.56;5057165;28;20080;-80
2022/05/07 11:09:07;;;;;;;5.13;1.60;;;;;;;-141.50;100.00;63355.56;5072711;28;20056;-77
2022/05/07 11:11:49;;;;;;;3.95;1.35;;;;;;;-141.50;100.00;63355.56;5066959;28;20056;-81
2022/05/07 11:14:23;;;;;;;5.55;1.63;;;;;;;-141.50;100.00;63355.56;5092435;28;20051;-79
2022/05/07 11:16:55;;;;;;;2.80;1.80;;;;;;;-141.50;100.00;63355.56;5094676;28;20079;-79
2022/05/07 11:19:24;;;;;;;5.00;1.50;;;;;;;-141.50;100.00;63355.56;5078593;28;20067;-74
2022/05/07 12:31:13;;;;;;;3.00;1.50;;;;;;;-141.50;100.00;63355.56;5089283;28;20059;-80
2022/05/07 12:33:40;;;;;;;6.35;2.00;;;;;;;-141.50;100.00;63355.56;5070227;28;20055;-78
2022/05/07 12:36:06;;;;;;;5.35;1.55;;;;;;;-141.50;100.00;63355.56;5060785;28;20048;-81
2022/05/07 12:38:33;;;;;;;4.38;1.27;;;;;;;-141.50;100.00;63355.56;5071033;28;20139;-80
2022/05/07 12:40:59;;;;;;;3.30;1.35;;;;;;;-141.50;100.00;63355.56;5073131;28;20095;-79
2022/05/07 12:43:26;;;;;;;3.33;1.60;;;;;;;-141.50;100.00;63355.56;5078327;28;20186;-79
2022/05/07 12:45:53;;;;;;;4.97;1.60;;;;;;;-141.50;100.00;63355.56;5064488;28;20056;-78
2022/05/07 12:48:20;;;;;;;2.13;1.38;;;;;;;-141.50;100.00;63355.56;5093865;28;20075;-82